createdAt,value
2023-02-10T00:01:59.797Z,13.00
2023-02-10T00:07:02.597Z,13.75
2023-02-10T00:12:06.039Z,12.75
2023-02-10T00:17:10.243Z,13.40
2023-02-10T00:22:12.980Z,13.00
2023-02-10T00:27:15.814Z,12.00
2023-02-10T00:32:20.151Z,12.00
2023-02-10T00:37:23.013Z,12.50
2023-02-10T00:42:27.915Z,12.50
2023-02-10T00:47:32.066Z,11.25
2023-02-10T00:52:36.469Z,12.25
2023-02-10T00:57:39.196Z,12.00
2023-02-10T01:02:43.298Z,11.75
2023-02-10T01:07:46.051Z,11.25
2023-02-10T01:12:48.932Z,13.00
2023-02-10T01:17:54.166Z,11.25
2023-02-10T01:22:57.088Z,12.25
2023-02-10T01:28:01.080Z,11.75
2023-02-10T01:33:05.387Z,10.00
2023-02-10T01:38:08.159Z,10.00
2023-02-10T01:43:16.043Z,11.00
2023-02-10T01:48:20.308Z,10.25
2023-02-10T01:53:24.638Z,10.25
2023-02-10T01:58:29.935Z,10.25
2023-02-10T02:03:34.317Z,11.00
2023-02-10T02:08:38.636Z,11.00
2023-02-10T02:13:55.743Z,10.00
2023-02-10T02:19:07.776Z,8.75
2023-02-10T02:24:42.508Z,10.00
2023-02-10T02:30:22.225Z,10.50
2023-02-10T02:35:30.003Z,8.00
2023-02-10T02:40:32.854Z,11.00
2023-02-10T02:45:51.119Z,10.00
2023-02-10T02:51:06.180Z,11.75
2023-02-10T02:56:22.232Z,8.50
2023-02-10T03:01:31.553Z,8.00
2023-02-10T03:06:36.180Z,9.00
2023-02-10T03:11:39.108Z,9.00
2023-02-10T03:16:41.976Z,9.00
2023-02-10T03:21:46.240Z,7.50
2023-02-10T03:26:48.990Z,8.75
2023-02-10T03:31:51.971Z,8.50
2023-02-10T03:36:56.136Z,9.75
2023-02-10T03:41:59.145Z,9.00
2023-02-10T03:47:01.895Z,8.00
2023-02-10T03:52:06.226Z,9.50
2023-02-10T03:57:09.030Z,7.25
2023-02-10T04:02:11.941Z,7.25
2023-02-10T04:07:16.051Z,7.75
2023-02-10T04:12:18.840Z,8.00
2023-02-10T04:17:21.594Z,7.50
2023-02-10T04:22:25.925Z,8.00
2023-02-10T04:27:28.777Z,7.75
2023-02-10T04:32:31.713Z,6.75
2023-02-10T04:37:35.821Z,7.00
2023-02-10T04:42:39.249Z,6.75
2023-02-10T04:47:42.084Z,9.00
2023-02-10T04:52:46.221Z,7.00
2023-02-10T04:57:48.995Z,7.00
2023-02-10T05:02:51.789Z,7.50
2023-02-10T05:07:55.925Z,7.25
2023-02-10T05:12:58.732Z,8.00
2023-02-10T05:18:01.532Z,7.75
2023-02-10T05:23:05.629Z,6.00
2023-02-10T05:28:08.408Z,6.50
2023-02-10T05:33:11.176Z,6.75
2023-02-10T05:38:15.261Z,6.50
2023-02-10T05:43:18.091Z,6.75
2023-02-10T05:48:21.163Z,7.00
2023-02-10T05:53:25.261Z,7.50
2023-02-10T05:58:28.931Z,6.75
2023-02-10T06:03:31.704Z,6.00
2023-02-10T06:08:35.936Z,6.00
2023-02-10T06:13:39.283Z,7.00
2023-02-10T06:18:43.300Z,6.00
2023-02-10T06:23:47.471Z,6.00
2023-02-10T06:28:50.357Z,6.75
2023-02-10T06:33:53.249Z,5.25
2023-02-10T06:38:57.369Z,6.00
2023-02-10T06:44:00.254Z,5.50
2023-02-10T06:49:03.394Z,6.25
2023-02-10T06:54:07.618Z,5.00
2023-02-10T06:59:10.395Z,5.00
2023-02-10T07:04:13.160Z,7.00
2023-02-10T07:09:17.424Z,4.25
2023-02-10T07:14:20.277Z,5.00
2023-02-10T07:19:23.138Z,4.25
2023-02-10T07:24:27.459Z,4.50
2023-02-10T07:29:30.452Z,5.00
2023-02-10T07:34:35.073Z,6.00
2023-02-10T07:39:39.203Z,5.00
2023-02-10T07:44:42.494Z,5.00
2023-02-10T07:49:45.314Z,6.00
2023-02-10T07:54:49.491Z,5.25
2023-02-10T07:59:52.509Z,5.50
2023-02-10T08:04:56.517Z,6.00
2023-02-10T08:10:01.135Z,24.00
2023-02-10T08:15:04.114Z,26.80
2023-02-10T08:20:08.523Z,27.40
2023-02-10T08:25:12.677Z,24.40
2023-02-10T08:30:15.635Z,22.80
2023-02-10T08:35:19.052Z,21.00
2023-02-10T08:40:23.186Z,21.60
2023-02-10T08:45:26.568Z,18.20
2023-02-10T08:50:29.619Z,17.40
2023-02-10T08:55:33.802Z,16.20
2023-02-10T09:00:37.037Z,14.60
2023-02-10T09:05:39.837Z,14.75
2023-02-10T09:10:45.103Z,12.25
2023-02-10T09:15:48.237Z,12.00
2023-02-10T09:20:51.184Z,11.75
2023-02-10T09:25:59.846Z,11.00
2023-02-10T09:31:02.664Z,9.50
2023-02-10T09:36:07.148Z,10.00
2023-02-10T09:41:21.982Z,10.75
2023-02-10T09:46:37.257Z,11.00
2023-02-10T09:51:52.892Z,9.50
2023-02-10T09:56:57.650Z,8.50
2023-02-10T10:02:05.007Z,51.00
2023-02-10T10:07:19.433Z,81.80
2023-02-10T10:12:23.625Z,98.00
2023-02-10T10:17:48.018Z,99.60
2023-02-10T10:22:58.446Z,109.33
2023-02-10T10:28:15.353Z,123.33
2023-02-10T10:33:24.132Z,124.33
2023-02-10T10:38:31.960Z,132.25
2023-02-10T10:43:44.253Z,119.67
2023-02-10T10:48:47.277Z,106.00
2023-02-10T10:53:52.380Z,96.00
2023-02-10T10:58:56.491Z,93.00
2023-02-10T11:04:05.714Z,87.60
2023-02-10T11:09:22.115Z,82.80
2023-02-10T11:14:29.204Z,80.40
2023-02-10T11:19:47.413Z,75.00
2023-02-10T11:24:54.114Z,72.60
2023-02-10T11:30:00.063Z,71.00
2023-02-10T11:35:06.676Z,70.20
2023-02-10T11:40:22.036Z,68.60
2023-02-10T11:45:28.212Z,64.60
2023-02-10T11:50:34.262Z,65.00
2023-02-10T11:55:46.874Z,62.80
2023-02-10T12:00:59.990Z,64.00
2023-02-10T12:06:09.819Z,62.80
2023-02-10T12:11:21.740Z,60.20
2023-02-10T12:16:35.688Z,62.00
2023-02-10T12:21:53.676Z,60.20
2023-02-10T12:27:01.290Z,60.60
2023-02-10T12:32:22.259Z,56.00
2023-02-10T12:37:52.081Z,55.80
2023-02-10T12:43:06.581Z,54.20
2023-02-10T12:48:25.523Z,53.00
2023-02-10T12:53:34.884Z,53.20
2023-02-10T12:58:42.138Z,51.80
2023-02-10T13:03:50.037Z,52.00
2023-02-10T13:08:57.233Z,51.00
2023-02-10T13:14:02.351Z,50.20
2023-02-10T13:19:23.057Z,50.40
2023-02-10T13:24:30.376Z,50.00
2023-02-10T13:29:43.070Z,51.40
2023-02-10T13:34:51.577Z,48.40
2023-02-10T13:39:57.682Z,47.00
2023-02-10T13:45:04.069Z,44.20
2023-02-10T13:50:20.204Z,47.40
2023-02-10T13:55:46.065Z,44.80
2023-02-10T14:00:52.251Z,47.40
2023-02-10T14:06:00.347Z,44.40
2023-02-10T14:11:06.409Z,43.80
2023-02-10T14:16:30.291Z,43.40
2023-02-10T14:21:42.738Z,41.40
2023-02-10T14:26:48.105Z,41.40
2023-02-10T14:31:54.863Z,39.20
2023-02-10T14:37:00.948Z,37.60
2023-02-10T14:42:06.961Z,36.80
2023-02-10T14:47:17.502Z,36.80
2023-02-10T14:52:36.626Z,33.60
2023-02-10T14:57:46.227Z,33.80
2023-02-10T15:03:00.320Z,33.20
2023-02-10T15:08:08.304Z,32.00
2023-02-10T15:13:12.475Z,31.00
2023-02-10T15:18:21.118Z,29.40
2023-02-10T15:23:32.039Z,31.00
2023-02-10T15:28:35.744Z,30.00
2023-02-10T15:33:40.963Z,30.00
2023-02-10T15:38:47.544Z,28.80
2023-02-10T15:43:50.683Z,29.00
2023-02-10T15:48:53.511Z,28.00
2023-02-10T15:53:59.432Z,26.20
2023-02-10T15:59:02.225Z,26.00
2023-02-10T16:04:05.049Z,26.00
2023-02-10T16:09:09.290Z,25.60
2023-02-10T16:14:12.250Z,26.00
2023-02-10T16:19:16.714Z,24.80
2023-02-10T16:24:22.116Z,25.00
2023-02-10T16:29:27.543Z,24.40
2023-02-10T16:34:30.737Z,26.00
2023-02-10T16:39:35.235Z,23.40
2023-02-10T16:44:38.097Z,23.00
2023-02-10T16:49:41.048Z,28.20
2023-02-10T16:54:45.166Z,29.40
2023-02-10T16:59:49.765Z,29.00
2023-02-10T17:04:52.675Z,32.00
2023-02-10T17:09:56.863Z,32.40
2023-02-10T17:14:59.985Z,31.00
2023-02-10T17:20:03.426Z,31.00
2023-02-10T17:25:08.056Z,30.00
2023-02-10T17:30:13.455Z,29.00
2023-02-10T17:35:19.130Z,28.40
2023-02-10T17:40:35.339Z,28.00
2023-02-10T17:45:39.447Z,28.40
2023-02-10T17:50:42.325Z,27.80
2023-02-10T17:55:46.518Z,27.00
2023-02-10T18:00:49.389Z,27.00
2023-02-10T18:05:53.864Z,26.40
2023-02-10T18:10:58.023Z,26.00
2023-02-10T18:16:00.842Z,25.80
2023-02-10T18:21:04.399Z,25.40
2023-02-10T18:26:08.796Z,26.00
2023-02-10T18:31:15.010Z,25.00
2023-02-10T18:36:19.672Z,25.00
2023-02-10T18:41:23.911Z,24.60
2023-02-10T18:46:26.849Z,23.00
2023-02-10T18:51:31.292Z,25.00
2023-02-10T18:56:35.652Z,24.00
2023-02-10T19:01:38.432Z,24.40
2023-02-10T19:06:41.189Z,23.00
2023-02-10T19:11:45.432Z,22.60
2023-02-10T19:16:48.252Z,23.00
2023-02-10T19:21:51.135Z,22.40
2023-02-10T19:26:55.617Z,23.40
2023-02-10T19:31:58.560Z,21.00
2023-02-10T19:37:01.549Z,23.00
2023-02-10T19:42:05.917Z,21.20
2023-02-10T19:47:08.825Z,21.20
2023-02-10T19:52:11.560Z,20.80
2023-02-10T19:57:15.747Z,21.00
2023-02-10T20:02:20.380Z,21.20
2023-02-10T20:07:23.258Z,19.60
2023-02-10T20:12:28.102Z,20.00
2023-02-10T20:17:30.968Z,20.00
2023-02-10T20:22:34.504Z,21.00
2023-02-10T20:27:38.774Z,20.00
2023-02-10T20:32:41.544Z,18.20
2023-02-10T20:37:44.318Z,17.80
2023-02-10T20:42:50.048Z,19.20
2023-02-10T20:47:52.930Z,18.60
2023-02-10T20:52:55.670Z,18.00
2023-02-10T20:57:59.783Z,16.80
2023-02-10T21:03:02.611Z,18.40
2023-02-10T21:08:06.059Z,18.00
2023-02-10T21:13:10.339Z,17.40
2023-02-10T21:18:13.208Z,19.00
2023-02-10T21:23:16.044Z,16.40
2023-02-10T21:28:20.748Z,18.00
2023-02-10T21:33:24.336Z,16.40
2023-02-10T21:38:27.093Z,16.20
2023-02-10T21:43:31.353Z,17.00
2023-02-10T21:48:34.160Z,16.00
2023-02-10T21:53:37.203Z,14.00
2023-02-10T21:58:41.309Z,15.00
2023-02-10T22:03:44.266Z,14.75
2023-02-10T22:08:47.136Z,14.25
2023-02-10T22:13:52.334Z,14.00
2023-02-10T22:18:55.288Z,15.50
2023-02-10T22:23:58.577Z,13.50
2023-02-10T22:29:02.729Z,14.25
2023-02-10T22:34:07.256Z,12.75
2023-02-10T22:39:10.429Z,13.75
2023-02-10T22:44:17.249Z,15.00
2023-02-10T22:49:20.176Z,12.75
2023-02-10T22:54:22.944Z,13.00
2023-02-10T22:59:27.076Z,12.50
2023-02-10T23:04:30.013Z,12.00
2023-02-10T23:09:32.814Z,13.75
2023-02-10T23:14:36.994Z,12.00
2023-02-10T23:19:40.093Z,13.25
2023-02-10T23:24:42.882Z,12.75
2023-02-10T23:29:47.972Z,11.75
2023-02-10T23:34:51.813Z,11.75
2023-02-10T23:39:54.738Z,12.75
2023-02-10T23:44:59.130Z,9.50
2023-02-10T23:50:01.864Z,12.00
2023-02-10T23:55:04.860Z,12.00
